Time;durP1;ratioP1;P1;durP2;ratioP2;P2;SDS_P1;SDS_P2;PMS_P1;PMS_P2;Temp;Humidity;BMP_temperature;BMP_pressure;BME280_temperature;BME280_humidity;BME280_pressure;Samples;Min_cycle;Max_cycle;Signal;HPM_P1;HPM_P2
2021/12/01 06:42:10;;;;;;;4.38;2.78;;;;;;;;;;5929608;23;20422;31
2021/12/01 06:44:35;;;;;;;3.70;2.13;;;;;;;;;;4842211;29;20050;-87
2021/12/01 06:47:02;;;;;;;4.50;2.53;;;;;;;;;;4843143;29;20037;-87
2021/12/01 06:49:28;;;;;;;3.20;2.22;;;;;;;;;;4842987;29;20034;-86
2021/12/01 06:51:53;;;;;;;3.35;1.88;;;;;;;;;;4843207;29;20146;-84
2021/12/01 06:54:19;;;;;;;4.30;1.88;;;;;;;;;;4843045;29;20065;-86
2021/12/01 06:56:44;;;;;;;4.55;2.30;;;;;;;;;;4843220;29;20033;-83
2021/12/01 06:59:10;;;;;;;3.40;2.00;;;;;;;;;;4843362;29;20040;-87
2021/12/01 07:01:35;;;;;;;4.82;2.60;;;;;;;;;;4857130;29;20037;-87
2021/12/01 07:04:01;;;;;;;6.72;2.90;;;;;;;;;;4843468;29;20037;-86
2021/12/01 11:10:20;;;;;;;7.10;5.53;;;;;;;;;;4867176;29;20057;-94
2021/12/01 11:12:56;;;;;;;6.93;5.47;;;;;;;;;;4869575;29;20323;-92
2021/12/01 11:15:33;;;;;;;6.15;5.20;;;;;;;;;;4864891;29;20030;-94
2021/12/01 11:18:01;;;;;;;6.80;5.38;;;;;;;;;;4862731;29;20105;-93
2021/12/01 11:20:43;;;;;;;5.80;5.30;;;;;;;;;;4861674;29;20029;-91
2021/12/01 11:23:14;;;;;;;7.43;5.75;;;;;;;;;;4877576;29;20073;-91
2021/12/01 11:25:42;;;;;;;9.05;6.78;;;;;;;;;;4876816;29;20461;-89
2021/12/01 11:28:09;;;;;;;7.95;6.00;;;;;;;;;;4878930;29;20026;-87
2021/12/01 11:30:40;;;;;;;6.45;5.80;;;;;;;;;;4862064;29;20489;-93
2021/12/01 11:33:05;;;;;;;8.27;6.22;;;;;;;;;;4849115;29;20023;-94
2021/12/01 11:35:31;;;;;;;9.50;6.57;;;;;;;;;;4855566;29;20045;-94
2021/12/01 11:37:57;;;;;;;7.60;6.80;;;;;;;;;;4853118;29;20026;-87
2021/12/01 11:40:28;;;;;;;8.40;6.50;;;;;;;;;;4861631;29;20125;-90
2021/12/01 11:42:55;;;;;;;9.25;6.95;;;;;;;;;;4873961;29;20026;-85
2021/12/01 11:45:20;;;;;;;8.05;6.28;;;;;;;;;;4873318;29;20021;-92
2021/12/01 11:47:47;;;;;;;6.82;5.53;;;;;;;;;;4863088;29;20104;-95
2021/12/01 11:50:26;;;;;;;7.70;6.65;;;;;;;;;;4861260;29;20090;-90
2021/12/01 11:53:15;;;;;;;7.85;5.80;;;;;;;;;;4860864;29;20062;-92
2021/12/01 11:55:52;;;;;;;7.60;5.35;;;;;;;;;;4861473;29;20034;-92
2021/12/01 11:58:45;;;;;;;7.68;6.32;;;;;;;;;;4865426;29;20033;-90
2021/12/01 12:01:25;;;;;;;7.30;5.78;;;;;;;;;;4857237;29;20045;-93
2021/12/01 12:03:54;;;;;;;7.32;5.88;;;;;;;;;;4864041;29;20074;-91
2021/12/01 12:06:20;;;;;;;7.20;4.82;;;;;;;;;;4865627;29;20028;-92
2021/12/01 12:09:05;;;;;;;5.50;4.82;;;;;;;;;;4864548;29;20029;-92
2021/12/01 12:11:34;;;;;;;5.70;4.72;;;;;;;;;;4864600;29;20469;-88
2021/12/01 12:14:11;;;;;;;5.18;4.63;;;;;;;;;;4865345;29;20108;-92
2021/12/01 12:16:38;;;;;;;6.60;4.22;;;;;;;;;;4859896;29;20036;-91
2021/12/01 12:19:04;;;;;;;6.03;4.55;;;;;;;;;;4864370;29;20070;-93
2021/12/01 12:24:11;;;;;;;5.43;4.88;;;;;;;;;;4859318;29;20108;-94
2021/12/01 12:26:42;;;;;;;6.13;5.15;;;;;;;;;;4856514;29;20381;-92
2021/12/01 12:29:14;;;;;;;5.10;4.38;;;;;;;;;;4849244;29;20442;-90
2021/12/01 12:31:40;;;;;;;8.15;6.50;;;;;;;;;;4863455;29;20033;-88
2021/12/01 12:34:14;;;;;;;16.50;8.82;;;;;;;;;;4864049;29;20029;-90
2021/12/01 12:36:47;;;;;;;9.07;6.30;;;;;;;;;;4865207;29;20057;-95
2021/12/01 12:39:47;;;;;;;5.00;3.83;;;;;;;;;;4863831;29;20033;-95
2021/12/01 12:42:12;;;;;;;;;;;;;;;;;;4808576;29;20149;-96
2021/12/01 12:44:44;;;;;;;7.00;4.38;;;;;;;;;;4808466;29;19940;-94
2021/12/01 12:47:12;;;;;;;5.78;4.53;;;;;;;;;;4833884;29;20050;-94
2021/12/01 12:49:54;;;;;;;6.78;5.03;;;;;;;;;;4861040;29;20037;-93
2021/12/01 21:55:37;;;;;;;25.23;17.75;;;;;;;;;;4935126;23;20073;-85
2021/12/01 21:58:03;;;;;;;24.25;16.23;;;;;;;;;;4865104;29;20041;-87
2021/12/01 22:00:29;;;;;;;22.08;15.75;;;;;;;;;;4865031;29;20077;-85
2021/12/01 22:02:59;;;;;;;26.75;16.20;;;;;;;;;;4881629;29;20112;-84
2021/12/01 22:05:26;;;;;;;24.42;17.27;;;;;;;;;;4881525;29;20101;-85
2021/12/01 22:07:51;;;;;;;24.58;16.52;;;;;;;;;;4864922;29;20400;-86
2021/12/01 22:10:17;;;;;;;22.90;16.67;;;;;;;;;;4865006;29;20037;-87
2021/12/01 22:12:43;;;;;;;23.55;16.77;;;;;;;;;;4881138;29;20111;-84
2021/12/01 22:15:10;;;;;;;25.60;16.20;;;;;;;;;;4881271;29;20472;-85
2021/12/01 22:17:45;;;;;;;21.90;15.65;;;;;;;;;;4865048;29;20459;-85
2021/12/01 22:20:13;;;;;;;19.58;14.80;;;;;;;;;;4864849;29;20033;-84
2021/12/01 22:22:42;;;;;;;20.55;15.15;;;;;;;;;;4864459;29;20040;-84
2021/12/01 22:25:11;;;;;;;23.23;14.82;;;;;;;;;;4881189;29;20122;-85
2021/12/01 22:27:40;;;;;;;24.52;14.40;;;;;;;;;;4864522;29;20052;-85
2021/12/01 22:30:10;;;;;;;20.92;14.82;;;;;;;;;;4864286;29;20036;-84
2021/12/01 22:32:41;;;;;;;19.30;14.13;;;;;;;;;;4880694;29;20108;-84
2021/12/01 22:35:07;;;;;;;19.98;14.00;;;;;;;;;;4864145;29;20069;-84
2021/12/01 22:37:39;;;;;;;23.27;14.18;;;;;;;;;;4864214;29;20033;-85
2021/12/01 22:40:18;;;;;;;23.02;14.68;;;;;;;;;;4880713;29;20025;-84
2021/12/01 22:42:46;;;;;;;19.88;14.02;;;;;;;;;;4864104;29;20124;-84
2021/12/01 22:45:12;;;;;;;19.70;14.02;;;;;;;;;;4863238;29;20052;-84
2021/12/01 22:47:38;;;;;;;20.42;14.10;;;;;;;;;;4880995;29;20041;-84
2021/12/01 22:50:05;;;;;;;22.95;14.80;;;;;;;;;;4864226;29;20032;-84
2021/12/01 22:52:31;;;;;;;21.73;14.13;;;;;;;;;;4880739;29;20029;-84
2021/12/01 22:54:57;;;;;;;20.20;13.73;;;;;;;;;;4864406;29;20038;-84
2021/12/01 22:57:25;;;;;;;21.40;13.95;;;;;;;;;;4866550;29;20061;-87
2021/12/01 22:59:55;;;;;;;20.05;13.95;;;;;;;;;;4866543;29;20101;-84
2021/12/01 23:02:22;;;;;;;24.65;14.88;;;;;;;;;;4866358;29;20033;-86
2021/12/01 23:04:54;;;;;;;20.75;14.63;;;;;;;;;;4864165;29;20024;-86
2021/12/01 23:07:23;;;;;;;21.92;14.18;;;;;;;;;;4864161;29;20084;-87
2021/12/01 23:09:49;;;;;;;18.53;13.67;;;;;;;;;;4864306;29;20033;-87
2021/12/01 23:12:16;;;;;;;21.92;14.70;;;;;;;;;;4864375;29;20037;-86
2021/12/01 23:14:42;;;;;;;20.58;14.15;;;;;;;;;;4864508;29;20041;-88
2021/12/01 23:17:07;;;;;;;22.88;14.38;;;;;;;;;;4863940;29;20029;-89
2021/12/01 23:19:39;;;;;;;22.48;14.43;;;;;;;;;;4880889;29;20033;-90
2021/12/01 23:22:12;;;;;;;21.00;14.10;;;;;;;;;;4862700;29;20036;-87
2021/12/01 23:27:35;;;;;;;19.90;14.48;;;;;;;;;;4881180;29;20084;-89
2021/12/01 23:30:04;;;;;;;23.77;14.45;;;;;;;;;;4880713;29;20476;-92
